Time;durP1;ratioP1;P1;durP2;ratioP2;P2;SDS_P1;SDS_P2;PMS_P1;PMS_P2;Temp;Humidity;BMP_temperature;BMP_pressure;BME280_temperature;BME280_humidity;BME280_pressure;Samples;Min_cycle;Max_cycle;Signal;HPM_P1;HPM_P2
2022/05/21 00:00:59;;;;;;;;;;;;;;;;;;5009488;28;20062;-62
2022/05/21 00:03:25;;;;;;;9.20;2.58;;;;;;;;;;5013178;28;19987;-61
2022/05/21 00:05:52;;;;;;;7.82;3.05;;;;;;;;;;5023754;28;20057;-61
2022/05/21 00:08:18;;;;;;;10.50;3.78;;;;;;;;;;5032540;28;20053;-61
2022/05/21 00:10:45;;;;;;;10.13;4.60;;;;;;;;;;5012389;28;20156;-61
2022/05/21 00:13:12;;;;;;;9.65;4.15;;;;;;;;;;5012271;28;20057;-62
2022/05/21 00:15:41;;;;;;;12.55;3.90;;;;;;;;;;5018454;28;20057;-62
2022/05/21 00:18:07;;;;;;;12.00;4.25;;;;;;;;;;5031254;28;20059;-63
2022/05/21 00:23:21;;;;;;;8.50;3.85;;;;;;;;;;5010132;28;20056;-62
2022/05/21 00:25:49;;;;;;;9.07;3.75;;;;;;;;;;5007290;28;20045;-61
2022/05/21 00:28:16;;;;;;;6.23;2.90;;;;;;;;;;4998265;28;20136;-62
2022/05/21 00:30:45;;;;;;;9.30;3.80;;;;;;;;;;4994022;28;20052;-62
2022/05/21 00:33:12;;;;;;;9.27;4.78;;;;;;;;;;5012112;28;20084;-62
2022/05/21 00:35:38;;;;;;;8.52;4.15;;;;;;;;;;5010100;28;20049;-62
2022/05/21 00:38:05;;;;;;;8.45;4.20;;;;;;;;;;5031530;28;20107;-61
2022/05/21 00:40:32;;;;;;;6.75;3.33;;;;;;;;;;5023703;28;20129;-62
2022/05/21 00:42:58;;;;;;;8.50;3.75;;;;;;;;;;5012062;28;20140;-62
2022/05/21 00:45:25;;;;;;;9.23;4.72;;;;;;;;;;5011614;28;20053;-62
2022/05/21 00:47:53;;;;;;;6.22;3.33;;;;;;;;;;5040043;28;20057;-61
2022/05/21 00:50:22;;;;;;;8.80;3.67;;;;;;;;;;5012353;28;20049;-61
2022/05/21 00:52:50;;;;;;;10.02;4.32;;;;;;;;;;5006560;28;20133;-61
2022/05/21 00:55:18;;;;;;;10.57;5.15;;;;;;;;;;5011629;28;20113;-61
2022/05/21 00:57:47;;;;;;;7.90;3.40;;;;;;;;;;5020392;28;20052;-61
2022/05/21 01:00:14;;;;;;;9.98;3.85;;;;;;;;;;5030011;28;20064;-61
2022/05/21 01:02:42;;;;;;;12.67;4.73;;;;;;;;;;5013218;28;20057;-61
2022/05/21 01:05:12;;;;;;;8.23;3.75;;;;;;;;;;5011651;28;20057;-61
2022/05/21 01:07:39;;;;;;;11.43;4.57;;;;;;;;;;5015557;28;20099;-61
2022/05/21 01:10:06;;;;;;;10.50;4.82;;;;;;;;;;5010680;28;20050;-62
2022/05/21 01:12:35;;;;;;;11.70;4.90;;;;;;;;;;5006844;28;20060;-62
2022/05/21 01:15:03;;;;;;;10.13;4.68;;;;;;;;;;5010830;28;20144;-62
2022/05/21 01:17:30;;;;;;;12.00;4.40;;;;;;;;;;5004481;28;20167;-61
2022/05/21 01:19:58;;;;;;;10.15;4.57;;;;;;;;;;5011263;28;20080;-62
2022/05/21 01:22:27;;;;;;;13.25;4.07;;;;;;;;;;5008722;28;20049;-62
2022/05/21 01:24:54;;;;;;;22.48;5.28;;;;;;;;;;5031538;28;20076;-62
2022/05/21 01:27:21;;;;;;;9.95;3.83;;;;;;;;;;5022428;28;20109;-61
2022/05/21 01:29:48;;;;;;;11.20;3.97;;;;;;;;;;5031096;28;20102;-61
2022/05/21 01:32:17;;;;;;;14.73;5.00;;;;;;;;;;5030868;28;20076;-63
2022/05/21 01:34:43;;;;;;;7.63;3.95;;;;;;;;;;5008682;28;20049;-62
2022/05/21 01:37:11;;;;;;;10.32;4.72;;;;;;;;;;5011012;28;20089;-62
2022/05/21 01:39:39;;;;;;;11.07;4.33;;;;;;;;;;5022013;28;20063;-63
2022/05/21 01:42:07;;;;;;;11.27;4.95;;;;;;;;;;5010786;28;20335;-61
2022/05/21 01:44:38;;;;;;;7.68;3.85;;;;;;;;;;5020035;28;20092;-62
2022/05/21 01:47:05;;;;;;;7.68;3.65;;;;;;;;;;5046955;28;20061;-62
2022/05/21 01:49:31;;;;;;;13.10;4.60;;;;;;;;;;5012018;28;20065;-63
2022/05/21 01:51:58;;;;;;;10.40;3.95;;;;;;;;;;5010805;28;20053;-62
2022/05/21 01:54:24;;;;;;;9.43;3.85;;;;;;;;;;5015396;28;20148;-62
2022/05/21 01:56:52;;;;;;;10.23;4.15;;;;;;;;;;5030370;28;20052;-62
2022/05/21 01:59:19;;;;;;;13.73;5.67;;;;;;;;;;5038597;28;20057;-62
2022/05/21 02:01:46;;;;;;;8.07;4.35;;;;;;;;;;5011363;28;20324;-62
2022/05/21 02:04:13;;;;;;;8.25;4.40;;;;;;;;;;5010591;28;20048;-62
2022/05/21 02:06:40;;;;;;;12.52;5.30;;;;;;;;;;5030402;28;20049;-62
2022/05/21 02:09:07;;;;;;;11.35;5.22;;;;;;;;;;5023793;28;20058;-62
2022/05/21 02:11:33;;;;;;;7.78;3.50;;;;;;;;;;5030039;28;20080;-62
2022/05/21 02:14:01;;;;;;;12.52;5.25;;;;;;;;;;5023456;28;20092;-62
2022/05/21 02:16:28;;;;;;;17.30;4.65;;;;;;;;;;5010567;28;20084;-62
2022/05/21 02:18:55;;;;;;;14.13;5.07;;;;;;;;;;5010603;28;20058;-62
2022/05/21 02:21:21;;;;;;;12.13;5.45;;;;;;;;;;5005143;28;20057;-62
2022/05/21 02:23:48;;;;;;;8.77;4.03;;;;;;;;;;5019252;28;20064;-62
2022/05/21 02:26:17;;;;;;;13.98;5.47;;;;;;;;;;5008869;28;20049;-62
2022/05/21 02:28:43;;;;;;;;;;;;;;;;;;5010182;28;20068;-62
2022/05/21 02:31:11;;;;;;;6.85;3.28;;;;;;;;;;5005794;28;20008;-62
2022/05/21 02:33:37;;;;;;;7.70;4.22;;;;;;;;;;5010028;28;20057;-61
2022/05/21 02:36:04;;;;;;;10.98;4.72;;;;;;;;;;5006052;28;20121;-63
2022/05/21 02:41:16;;;;;;;12.75;3.88;;;;;;;;;;5014942;28;20091;-62
2022/05/21 02:43:43;;;;;;;12.70;4.00;;;;;;;;;;5029114;28;20059;-61
2022/05/21 02:46:11;;;;;;;13.07;4.25;;;;;;;;;;5015730;28;20119;-63
2022/05/21 02:48:37;;;;;;;16.60;4.82;;;;;;;;;;5009631;28;20081;-62
2022/05/21 02:51:04;;;;;;;8.68;3.83;;;;;;;;;;5005052;28;20053;-62
2022/05/21 02:53:31;;;;;;;7.38;3.97;;;;;;;;;;5010401;28;20057;-62
2022/05/21 02:56:03;;;;;;;8.50;3.92;;;;;;;;;;5004758;28;20056;-63
2022/05/21 02:58:29;;;;;;;9.82;3.50;;;;;;;;;;5010111;28;20088;-62
2022/05/21 03:00:56;;;;;;;7.70;3.17;;;;;;;;;;5005601;28;20045;-63
2022/05/21 03:03:24;;;;;;;14.63;4.60;;;;;;;;;;5010494;28;20053;-62
2022/05/21 03:05:50;;;;;;;11.20;3.40;;;;;;;;;;5010222;28;20267;-62
2022/05/21 03:11:01;;;;;;;11.88;4.35;;;;;;;;;;5029812;28;20079;-62
2022/05/21 03:13:28;;;;;;;19.83;4.72;;;;;;;;;;5023667;28;20053;-61
2022/05/21 03:15:54;;;;;;;9.93;3.63;;;;;;;;;;5045963;28;20068;-62
2022/05/21 03:18:21;;;;;;;10.23;4.28;;;;;;;;;;5037896;28;20064;-61
2022/05/21 03:20:49;;;;;;;13.82;4.38;;;;;;;;;;5029652;28;20068;-61
2022/05/21 03:23:17;;;;;;;13.10;3.75;;;;;;;;;;5013605;28;20072;-61
2022/05/21 03:25:44;;;;;;;12.32;5.05;;;;;;;;;;5013294;28;20053;-61
2022/05/21 03:28:14;;;;;;;10.60;4.05;;;;;;;;;;4997299;28;20264;-60
2022/05/21 03:30:40;;;;;;;15.20;6.68;;;;;;;;;;4993433;28;20042;-61
2022/05/21 03:33:07;;;;;;;7.28;3.80;;;;;;;;;;5007134;28;20067;-61
2022/05/21 03:35:33;;;;;;;11.50;5.03;;;;;;;;;;5021068;28;20045;-61
2022/05/21 03:38:02;;;;;;;13.18;4.50;;;;;;;;;;5006555;28;20246;-61
2022/05/21 03:40:30;;;;;;;11.77;4.47;;;;;;;;;;5027891;28;20068;-61
2022/05/21 03:42:57;;;;;;;10.07;4.33;;;;;;;;;;5007164;28;20064;-61
2022/05/21 03:45:23;;;;;;;12.88;4.40;;;;;;;;;;5011346;28;20287;-60
2022/05/21 03:47:51;;;;;;;9.00;3.85;;;;;;;;;;5006074;28;20209;-61
2022/05/21 03:50:20;;;;;;;11.80;4.53;;;;;;;;;;5012064;28;20054;-61
2022/05/21 03:52:47;;;;;;;8.18;3.85;;;;;;;;;;5006311;28;20057;-60
2022/05/21 03:55:15;;;;;;;16.48;4.63;;;;;;;;;;5011055;28;20103;-61
2022/05/21 03:57:42;;;;;;;9.35;4.03;;;;;;;;;;5010533;28;20141;-61
2022/05/21 04:00:11;;;;;;;13.13;4.38;;;;;;;;;;5005338;28;20100;-61
2022/05/21 04:02:37;;;;;;;16.25;4.57;;;;;;;;;;5011770;28;20057;-61
2022/05/21 04:05:04;;;;;;;14.00;3.63;;;;;;;;;;5006192;28;20057;-60
2022/05/21 04:07:34;;;;;;;9.45;3.38;;;;;;;;;;5010964;28;20053;-61
2022/05/21 04:10:00;;;;;;;11.52;3.55;;;;;;;;;;5005734;28;20053;-61
2022/05/21 04:12:28;;;;;;;14.65;3.92;;;;;;;;;;5011483;28;20116;-61
2022/05/21 04:14:55;;;;;;;13.82;3.83;;;;;;;;;;5005825;28;20064;-61
2022/05/21 04:17:21;;;;;;;9.18;2.85;;;;;;;;;;5010465;28;20057;-60
2022/05/21 04:19:48;;;;;;;13.55;3.35;;;;;;;;;;5005556;28;20072;-61
2022/05/21 04:22:14;;;;;;;19.30;3.58;;;;;;;;;;5012864;28;20053;-61
2022/05/21 04:24:40;;;;;;;14.27;2.90;;;;;;;;;;5005829;28;20126;-60
2022/05/21 04:27:08;;;;;;;13.18;3.20;;;;;;;;;;5011067;28;20056;-62
2022/05/21 04:29:36;;;;;;;8.85;2.63;;;;;;;;;;5005993;28;20057;-61
2022/05/21 04:32:03;;;;;;;13.85;2.85;;;;;;;;;;5011471;28;20080;-61
2022/05/21 04:34:30;;;;;;;10.95;3.00;;;;;;;;;;5004803;28;20135;-61
2022/05/21 04:36:57;;;;;;;11.55;3.28;;;;;;;;;;5010078;28;20140;-60
2022/05/21 04:39:24;;;;;;;18.88;3.53;;;;;;;;;;5010931;28;20057;-61
2022/05/21 04:41:51;;;;;;;11.75;3.70;;;;;;;;;;5004472;28;20049;-61
2022/05/21 04:44:17;;;;;;;10.77;3.28;;;;;;;;;;5010245;28;20059;-60
2022/05/21 04:46:45;;;;;;;14.82;3.28;;;;;;;;;;5005673;28;20054;-61
2022/05/21 04:49:12;;;;;;;16.80;3.00;;;;;;;;;;5010795;28;20060;-60
2022/05/21 04:51:39;;;;;;;16.58;3.40;;;;;;;;;;5004959;28;20335;-61
2022/05/21 04:54:05;;;;;;;12.88;3.13;;;;;;;;;;5009901;28;20111;-61
2022/05/21 04:56:33;;;;;;;13.60;3.00;;;;;;;;;;5004980;28;20092;-61
2022/05/21 04:58:59;;;;;;;12.73;2.72;;;;;;;;;;5010703;28;20089;-61
2022/05/21 05:01:26;;;;;;;13.95;2.70;;;;;;;;;;5005821;28;20158;-61
2022/05/21 05:03:54;;;;;;;17.45;3.25;;;;;;;;;;5010490;28;20053;-61
2022/05/21 05:06:20;;;;;;;11.00;2.87;;;;;;;;;;5002580;28;20056;-61
2022/05/21 05:08:47;;;;;;;13.70;2.63;;;;;;;;;;5010472;28;20391;-61
2022/05/21 05:11:13;;;;;;;15.82;2.83;;;;;;;;;;5003960;28;20099;-60
2022/05/21 05:13:39;;;;;;;11.88;3.05;;;;;;;;;;5010211;28;20053;-61
2022/05/21 05:16:06;;;;;;;13.05;2.55;;;;;;;;;;5004088;28;20049;-61
2022/05/21 05:18:33;;;;;;;10.23;2.53;;;;;;;;;;5009429;28;20065;-61
2022/05/21 05:21:01;;;;;;;7.10;2.22;;;;;;;;;;5010541;28;20103;-61
2022/05/21 05:23:28;;;;;;;11.00;2.97;;;;;;;;;;5004246;28;20083;-61
2022/05/21 05:25:55;;;;;;;11.65;2.38;;;;;;;;;;5010472;28;20073;-60
2022/05/21 05:28:23;;;;;;;9.30;2.40;;;;;;;;;;5004850;28;20064;-61
2022/05/21 05:30:51;;;;;;;8.45;2.53;;;;;;;;;;5009929;28;20057;-61
2022/05/21 05:33:18;;;;;;;13.57;2.93;;;;;;;;;;5005384;28;20057;-60
2022/05/21 05:35:45;;;;;;;10.88;2.33;;;;;;;;;;5009975;28;20115;-62
2022/05/21 05:38:13;;;;;;;11.27;3.08;;;;;;;;;;5003943;28;20107;-61
2022/05/21 05:40:42;;;;;;;8.57;2.40;;;;;;;;;;5024451;28;20134;-61
2022/05/21 05:43:09;;;;;;;14.45;2.92;;;;;;;;;;5004377;28;20102;-61
2022/05/21 05:45:36;;;;;;;18.30;3.10;;;;;;;;;;5009337;28;20054;-61
2022/05/21 05:48:02;;;;;;;8.10;2.35;;;;;;;;;;5001093;28;20062;-62
2022/05/21 05:50:29;;;;;;;9.27;2.17;;;;;;;;;;5005378;28;20061;-61
2022/05/21 05:52:55;;;;;;;9.15;2.22;;;;;;;;;;5002504;28;20046;-61
2022/05/21 05:55:23;;;;;;;11.45;2.28;;;;;;;;;;5008751;28;20050;-62
2022/05/21 05:57:50;;;;;;;17.80;2.80;;;;;;;;;;5002850;28;20076;-61
2022/05/21 06:00:16;;;;;;;14.38;2.03;;;;;;;;;;5020043;28;20046;-62
2022/05/21 06:03:01;;;;;;;16.08;2.30;;;;;;;;;;5026011;28;20063;-61
2022/05/21 06:05:30;;;;;;;8.63;2.20;;;;;;;;;;4988337;28;20133;-61
2022/05/21 06:07:56;;;;;;;;;;;;;;;;;;4987559;28;20093;-61
2022/05/21 06:10:25;;;;;;;15.65;2.20;;;;;;;;;;5032987;28;19925;-62
2022/05/21 06:12:52;;;;;;;;;;;;;;;;;;5006982;28;20061;-61
2022/05/21 06:15:19;;;;;;;11.15;1.90;;;;;;;;;;5001786;28;19921;-61
2022/05/21 06:17:49;;;;;;;13.82;2.03;;;;;;;;;;5007135;28;20155;-62
2022/05/21 06:20:16;;;;;;;9.00;1.60;;;;;;;;;;5001663;28;20064;-61
2022/05/21 06:22:44;;;;;;;13.32;1.70;;;;;;;;;;5006708;28;20053;-61
2022/05/21 06:25:11;;;;;;;14.98;2.55;;;;;;;;;;5001505;28;20108;-62
2022/05/21 06:27:39;;;;;;;15.82;2.33;;;;;;;;;;5007069;28;20137;-61
2022/05/21 06:30:06;;;;;;;8.68;1.77;;;;;;;;;;5000815;28;20053;-61
2022/05/21 06:32:32;;;;;;;13.52;1.75;;;;;;;;;;5007125;28;20058;-61
2022/05/21 06:34:59;;;;;;;16.75;2.40;;;;;;;;;;5008736;28;20103;-62
2022/05/21 06:37:25;;;;;;;9.45;1.42;;;;;;;;;;5026744;28;20064;-62
2022/05/21 06:39:52;;;;;;;6.78;1.58;;;;;;;;;;5020584;28;20099;-61
2022/05/21 06:42:18;;;;;;;15.93;2.10;;;;;;;;;;5026892;28;20049;-61
2022/05/21 06:44:46;;;;;;;12.45;1.67;;;;;;;;;;5020930;28;20057;-61
2022/05/21 06:47:13;;;;;;;22.33;5.00;;;;;;;;;;5026158;28;20057;-61
2022/05/21 06:49:39;;;;;;;11.07;2.30;;;;;;;;;;5012704;28;20050;-61
2022/05/21 06:52:06;;;;;;;6.72;1.80;;;;;;;;;;5004640;28;20058;-61
2022/05/21 06:54:32;;;;;;;6.78;1.85;;;;;;;;;;5006038;28;20054;-61
2022/05/21 06:56:59;;;;;;;10.05;2.13;;;;;;;;;;5001373;28;20081;-61
2022/05/21 06:59:26;;;;;;;13.45;2.10;;;;;;;;;;5008839;28;20053;-61
2022/05/21 07:01:54;;;;;;;16.45;1.90;;;;;;;;;;5003374;28;20054;-62
2022/05/21 07:07:32;;;;;;;10.40;1.88;;;;;;;;;;5009542;28;20050;-61
2022/05/21 07:09:53;;;;;;;7.85;1.30;;;;;;;;;;5009696;28;20049;-61
2022/05/21 07:12:20;;;;;;;6.47;1.77;;;;;;;;;;5005039;28;20053;-61
2022/05/21 07:14:46;;;;;;;12.43;1.77;;;;;;;;;;5010822;28;20042;-62
2022/05/21 07:17:18;;;;;;;6.53;1.70;;;;;;;;;;5017149;28;20053;-61
2022/05/21 07:19:44;;;;;;;10.70;1.98;;;;;;;;;;5029540;28;20146;-61
2022/05/21 07:22:11;;;;;;;7.80;1.70;;;;;;;;;;5013088;28;20053;-61
2022/05/21 07:24:39;;;;;;;13.18;1.83;;;;;;;;;;5010600;28;20050;-62
2022/05/21 07:27:06;;;;;;;8.57;1.67;;;;;;;;;;5009693;28;20163;-61
2022/05/21 07:29:32;;;;;;;8.70;1.77;;;;;;;;;;4990403;28;20086;-61
2022/05/21 07:31:59;;;;;;;12.38;1.80;;;;;;;;;;4997074;28;20057;-62
2022/05/21 07:34:27;;;;;;;10.43;1.88;;;;;;;;;;5029355;28;20053;-61
2022/05/21 07:36:53;;;;;;;11.95;1.65;;;;;;;;;;5023456;28;20053;-62
2022/05/21 07:39:20;;;;;;;8.77;1.38;;;;;;;;;;5029465;28;20138;-63
2022/05/21 07:41:46;;;;;;;8.32;1.80;;;;;;;;;;5021923;28;20068;-61
2022/05/21 07:44:13;;;;;;;10.85;2.25;;;;;;;;;;5010179;28;20076;-62
2022/05/21 07:46:39;;;;;;;6.15;1.80;;;;;;;;;;5016703;28;20045;-61
2022/05/21 07:49:06;;;;;;;11.27;1.80;;;;;;;;;;5006261;28;20056;-61
2022/05/21 07:51:34;;;;;;;9.82;2.00;;;;;;;;;;5012318;28;20045;-62
2022/05/21 07:54:01;;;;;;;9.85;1.65;;;;;;;;;;5006016;28;20114;-62
2022/05/21 07:56:29;;;;;;;13.10;1.83;;;;;;;;;;5011679;28;20092;-61
2022/05/21 07:58:56;;;;;;;8.48;1.45;;;;;;;;;;5005879;28;20052;-62
2022/05/21 08:01:22;;;;;;;5.75;1.50;;;;;;;;;;5012464;28;20100;-62
2022/05/21 08:03:49;;;;;;;12.68;2.00;;;;;;;;;;5005530;28;20053;-62
2022/05/21 08:06:16;;;;;;;10.18;1.83;;;;;;;;;;5010414;28;20065;-61
2022/05/21 08:08:44;;;;;;;8.60;2.15;;;;;;;;;;5004716;28;20057;-63
2022/05/21 08:11:11;;;;;;;13.52;1.98;;;;;;;;;;5011914;28;20107;-62
2022/05/21 08:13:39;;;;;;;9.95;1.83;;;;;;;;;;5005832;28;20095;-61
2022/05/21 08:16:06;;;;;;;5.65;1.80;;;;;;;;;;5010791;28;20061;-62
2022/05/21 08:18:32;;;;;;;8.27;1.58;;;;;;;;;;5004585;28;20049;-62
2022/05/21 08:20:59;;;;;;;7.32;1.92;;;;;;;;;;5010940;28;20092;-62
2022/05/21 08:28:55;;;;;;;11.48;1.60;;;;;;;;;;5005576;28;20045;-62
2022/05/21 08:31:22;;;;;;;14.40;1.90;;;;;;;;;;5011284;28;20136;-62
2022/05/21 08:33:48;;;;;;;7.75;1.60;;;;;;;;;;5006223;28;20067;-62
2022/05/21 08:36:15;;;;;;;9.63;1.80;;;;;;;;;;5011474;28;20091;-62
2022/05/21 08:38:42;;;;;;;8.68;1.70;;;;;;;;;;5010922;28;20060;-62
2022/05/21 08:41:14;;;;;;;8.57;1.80;;;;;;;;;;5005280;28;20060;-61
2022/05/21 08:43:50;;;;;;;11.23;1.92;;;;;;;;;;5011243;28;20053;-62
2022/05/21 08:46:21;;;;;;;9.23;1.40;;;;;;;;;;5018133;28;20137;-62
2022/05/21 08:48:52;;;;;;;7.03;1.42;;;;;;;;;;5007159;28;20064;-62
2022/05/21 08:51:21;;;;;;;6.57;1.30;;;;;;;;;;5017107;28;20140;-62
2022/05/21 08:53:50;;;;;;;10.02;1.77;;;;;;;;;;5023170;28;20054;-63
2022/05/21 08:56:18;;;;;;;11.27;2.28;;;;;;;;;;5001799;28;20065;-62
2022/05/21 08:58:47;;;;;;;9.32;1.98;;;;;;;;;;5009411;28;20050;-62
2022/05/21 09:01:13;;;;;;;;;;;;;;;;;;5016972;28;20064;-62
2022/05/21 09:03:40;;;;;;;8.77;1.50;;;;;;;;;;5029664;28;19953;-63
2022/05/21 09:06:12;;;;;;;11.35;1.63;;;;;;;;;;5012029;28;20058;-63
2022/05/21 09:08:42;;;;;;;18.02;2.30;;;;;;;;;;5008171;28;20046;-63
2022/05/21 09:11:12;;;;;;;9.18;1.88;;;;;;;;;;5002109;28;20064;-62
2022/05/21 09:13:44;;;;;;;8.77;1.88;;;;;;;;;;5007752;28;20068;-63
2022/05/21 09:18:56;;;;;;;16.15;1.85;;;;;;;;;;5007885;28;20147;-63
2022/05/21 09:21:24;;;;;;;7.95;2.03;;;;;;;;;;5008179;28;20068;-63
2022/05/21 09:23:51;;;;;;;8.02;2.15;;;;;;;;;;5015281;28;20062;-63
2022/05/21 09:26:20;;;;;;;12.37;2.33;;;;;;;;;;5006706;28;20056;-63
2022/05/21 09:28:49;;;;;;;8.43;1.88;;;;;;;;;;5012020;28;20315;-63
2022/05/21 09:31:23;;;;;;;11.65;3.00;;;;;;;;;;5002609;28;20072;-62
2022/05/21 09:33:49;;;;;;;8.82;2.20;;;;;;;;;;5008267;28;20049;-62
2022/05/21 09:36:18;;;;;;;12.32;2.83;;;;;;;;;;5004374;28;20132;-63
2022/05/21 09:38:51;;;;;;;12.02;2.75;;;;;;;;;;5027177;28;20053;-62
2022/05/21 09:41:19;;;;;;;12.55;2.47;;;;;;;;;;5023900;28;20060;-62
2022/05/21 09:46:37;;;;;;;13.80;2.80;;;;;;;;;;5015464;28;20053;-62
2022/05/21 09:49:15;;;;;;;10.07;2.88;;;;;;;;;;5007563;28;20041;-66
2022/05/21 09:51:41;;;;;;;9.07;3.35;;;;;;;;;;5004932;28;20129;-65
2022/05/21 09:54:19;;;;;;;12.60;2.80;;;;;;;;;;5024409;28;20046;-67
2022/05/21 09:56:48;;;;;;;11.63;2.17;;;;;;;;;;5016666;28;20045;-67
2022/05/21 09:59:17;;;;;;;9.35;2.88;;;;;;;;;;5020092;28;20049;-66
2022/05/21 10:01:45;;;;;;;11.68;2.70;;;;;;;;;;5027509;28;20069;-64
2022/05/21 10:04:12;;;;;;;;;;;;;;;;;;5021024;28;20148;-62
2022/05/21 10:06:42;;;;;;;6.28;2.40;;;;;;;;;;5018430;28;19970;-66
2022/05/21 10:11:57;;;;;;;19.60;3.20;;;;;;;;;;5006207;28;20056;-64
2022/05/21 10:14:27;;;;;;;15.23;2.65;;;;;;;;;;5001945;28;20067;-64
2022/05/21 10:16:55;;;;;;;8.93;2.17;;;;;;;;;;5014520;28;20064;-64
2022/05/21 10:19:25;;;;;;;7.53;2.00;;;;;;;;;;5007563;28;20061;-65
2022/05/21 10:21:58;;;;;;;11.13;1.80;;;;;;;;;;5022607;28;20085;-65
2022/05/21 10:24:28;;;;;;;9.68;2.17;;;;;;;;;;5010762;28;20057;-64
2022/05/21 10:27:00;;;;;;;6.97;2.10;;;;;;;;;;5026715;28;20052;-65
2022/05/21 10:29:41;;;;;;;7.45;2.03;;;;;;;;;;5011073;28;20061;-65
2022/05/21 10:32:13;;;;;;;10.15;2.22;;;;;;;;;;5019949;28;20057;-65
2022/05/21 10:34:47;;;;;;;8.80;2.38;;;;;;;;;;5015677;28;20076;-65
2022/05/21 10:37:22;;;;;;;10.13;1.80;;;;;;;;;;5023322;28;20053;-64
2022/05/21 10:39:59;;;;;;;7.00;1.90;;;;;;;;;;5024249;28;20136;-65
2022/05/21 10:42:33;;;;;;;10.57;2.05;;;;;;;;;;5031636;28;20052;-64
2022/05/21 10:45:09;;;;;;;12.50;2.10;;;;;;;;;;5016371;28;20119;-64
2022/05/21 10:47:51;;;;;;;7.05;1.90;;;;;;;;;;5029794;28;20128;-64
2022/05/21 10:50:20;;;;;;;11.10;2.20;;;;;;;;;;5038587;28;20057;-64
2022/05/21 10:52:55;;;;;;;11.45;2.10;;;;;;;;;;5030426;28;20073;-64
2022/05/21 10:55:23;;;;;;;15.05;2.70;;;;;;;;;;5014918;28;20053;-64
2022/05/21 10:58:03;;;;;;;5.25;1.80;;;;;;;;;;5010666;28;20056;-63
2022/05/21 11:00:34;;;;;;;8.95;2.15;;;;;;;;;;5014547;28;20050;-64
2022/05/21 11:03:19;;;;;;;10.68;2.38;;;;;;;;;;5031204;28;20060;-64
2022/05/21 11:05:52;;;;;;;15.82;2.83;;;;;;;;;;5032246;28;20056;-64
2022/05/21 11:08:23;;;;;;;9.68;2.65;;;;;;;;;;5030197;28;20077;-65
2022/05/21 11:10:52;;;;;;;7.95;2.13;;;;;;;;;;5023880;28;20080;-64
2022/05/21 11:13:21;;;;;;;5.45;1.85;;;;;;;;;;5029869;28;20080;-64
2022/05/21 11:15:52;;;;;;;6.78;2.40;;;;;;;;;;5023680;28;20104;-64
2022/05/21 11:18:22;;;;;;;11.85;1.90;;;;;;;;;;5030354;28;20084;-64
2022/05/21 11:20:50;;;;;;;12.73;2.72;;;;;;;;;;5019461;28;20090;-65
2022/05/21 11:23:17;;;;;;;;;;;;;;;;;;5010676;28;20137;-64
2022/05/21 11:25:46;;;;;;;8.07;2.08;;;;;;;;;;5007342;28;20032;-64
2022/05/21 11:28:20;;;;;;;7.03;2.17;;;;;;;;;;5018328;28;20149;-65
2022/05/21 11:30:47;;;;;;;12.82;2.55;;;;;;;;;;5005941;28;20135;-64
2022/05/21 11:39:02;;;;;;;12.10;2.10;;;;;;;;;;4971670;28;20073;-64
2022/05/21 11:41:43;;;;;;;8.45;2.03;;;;;;;;;;4967826;28;20070;-64
2022/05/21 11:46:56;;;;;;;8.70;2.13;;;;;;;;;;5003173;28;20086;-64
2022/05/21 11:49:40;;;;;;;15.40;5.55;;;;;;;;;;5009404;28;20112;-65
2022/05/21 11:52:25;;;;;;;13.15;2.90;;;;;;;;;;5004289;28;20057;-64
2022/05/21 11:55:04;;;;;;;7.82;2.80;;;;;;;;;;5009827;28;20065;-65
2022/05/21 11:57:32;;;;;;;10.35;2.00;;;;;;;;;;5003207;28;20054;-65
2022/05/21 11:59:58;;;;;;;12.68;2.55;;;;;;;;;;5008750;28;20058;-65
2022/05/21 12:02:25;;;;;;;9.98;2.22;;;;;;;;;;5008892;28;20057;-65
2022/05/21 12:04:55;;;;;;;10.57;2.13;;;;;;;;;;5029165;28;20084;-65
2022/05/21 12:07:44;;;;;;;6.45;1.58;;;;;;;;;;5020886;28;20041;-65
2022/05/21 12:10:12;;;;;;;11.68;2.28;;;;;;;;;;5002836;28;20050;-65
2022/05/21 12:12:54;;;;;;;15.45;2.20;;;;;;;;;;5007100;28;20037;-65
2022/05/21 12:15:21;;;;;;;10.57;1.90;;;;;;;;;;5040509;28;20073;-65
2022/05/21 12:18:03;;;;;;;13.02;3.00;;;;;;;;;;5020676;28;20053;-65
2022/05/21 12:20:42;;;;;;;9.30;2.50;;;;;;;;;;5008930;28;20165;-65
2022/05/21 12:23:13;;;;;;;7.97;2.13;;;;;;;;;;5006062;28;20057;-64
2022/05/21 12:25:58;;;;;;;17.05;2.33;;;;;;;;;;5028409;28;20081;-65
2022/05/21 12:28:36;;;;;;;10.20;1.90;;;;;;;;;;5011524;28;20050;-65
2022/05/21 12:31:06;;;;;;;13.93;1.92;;;;;;;;;;5007964;28;20141;-65
2022/05/21 12:33:38;;;;;;;8.85;1.73;;;;;;;;;;5001815;28;20057;-65
2022/05/21 12:36:13;;;;;;;12.55;2.03;;;;;;;;;;5007443;28;20072;-65
2022/05/21 12:38:40;;;;;;;8.75;2.10;;;;;;;;;;5002575;28;20057;-65
2022/05/21 12:41:11;;;;;;;12.10;2.28;;;;;;;;;;5007103;28;20145;-65
2022/05/21 12:43:45;;;;;;;11.38;2.35;;;;;;;;;;4999265;28;20041;-65
2022/05/21 12:46:19;;;;;;;6.85;1.98;;;;;;;;;;5008020;28;20058;-65
2022/05/21 12:48:46;;;;;;;9.25;2.08;;;;;;;;;;4996791;28;20066;-65
2022/05/21 12:51:25;;;;;;;10.27;1.88;;;;;;;;;;5007215;28;20077;-65
2022/05/21 12:53:51;;;;;;;12.15;2.85;;;;;;;;;;5003101;28;21769;-64
2022/05/21 12:56:20;;;;;;;8.05;1.90;;;;;;;;;;5007751;28;20054;-64
2022/05/21 12:58:47;;;;;;;13.10;2.35;;;;;;;;;;5007088;28;20061;-65
2022/05/21 13:01:22;;;;;;;11.32;1.67;;;;;;;;;;5001579;28;20057;-64
2022/05/21 13:03:49;;;;;;;5.97;1.35;;;;;;;;;;5007542;28;20062;-64
2022/05/21 13:06:21;;;;;;;9.85;2.72;;;;;;;;;;5002333;28;20065;-64
2022/05/21 13:08:48;;;;;;;7.55;1.80;;;;;;;;;;5007276;28;20107;-64
2022/05/21 13:11:17;;;;;;;8.45;1.70;;;;;;;;;;5000614;28;20108;-65
2022/05/21 13:13:50;;;;;;;7.45;1.48;;;;;;;;;;5007421;28;20064;-64
2022/05/21 13:16:19;;;;;;;4.38;1.45;;;;;;;;;;5002167;28;20093;-64
2022/05/21 13:18:56;;;;;;;11.23;1.50;;;;;;;;;;5006701;28;20065;-65
2022/05/21 13:21:32;;;;;;;12.00;1.75;;;;;;;;;;5000609;28;20065;-65
2022/05/21 13:24:11;;;;;;;9.52;1.60;;;;;;;;;;5005726;28;20062;-65
2022/05/21 13:26:39;;;;;;;7.35;1.75;;;;;;;;;;5000831;28;20062;-65
2022/05/21 13:29:13;;;;;;;5.67;1.23;;;;;;;;;;5006380;28;20054;-65
2022/05/21 13:31:40;;;;;;;6.38;1.67;;;;;;;;;;5000098;28;20149;-64
2022/05/21 13:34:07;;;;;;;6.75;1.55;;;;;;;;;;5006571;28;20053;-65
2022/05/21 13:36:38;;;;;;;5.75;1.52;;;;;;;;;;5000406;28;20045;-65
2022/05/21 13:39:06;;;;;;;7.63;1.58;;;;;;;;;;5006695;28;20073;-65
2022/05/21 13:41:34;;;;;;;4.78;1.40;;;;;;;;;;5001208;28;20057;-64
2022/05/21 13:44:01;;;;;;;7.13;1.50;;;;;;;;;;5006272;28;20123;-65
2022/05/21 13:46:30;;;;;;;8.55;1.80;;;;;;;;;;5002003;28;20121;-65
2022/05/21 13:48:58;;;;;;;5.13;1.15;;;;;;;;;;5006774;28;20065;-65
2022/05/21 13:51:25;;;;;;;9.30;1.80;;;;;;;;;;5001331;28;20053;-64
2022/05/21 13:53:54;;;;;;;9.23;1.80;;;;;;;;;;5005904;28;20056;-64
2022/05/21 13:56:36;;;;;;;8.25;1.80;;;;;;;;;;5001030;28;20074;-65
2022/05/21 13:59:04;;;;;;;4.07;1.45;;;;;;;;;;5004551;28;20065;-64
2022/05/21 14:01:33;;;;;;;9.77;1.60;;;;;;;;;;4999935;28;20081;-65
2022/05/21 14:04:06;;;;;;;5.80;1.40;;;;;;;;;;5005335;28;20049;-65
2022/05/21 14:06:34;;;;;;;7.50;1.58;;;;;;;;;;5005939;28;20054;-65
2022/05/21 14:09:03;;;;;;;6.47;1.45;;;;;;;;;;5002620;28;20053;-65
2022/05/21 14:11:31;;;;;;;9.48;1.50;;;;;;;;;;5005449;28;20054;-65
2022/05/21 14:13:59;;;;;;;8.10;1.60;;;;;;;;;;5000146;28;20054;-65
2022/05/21 14:16:29;;;;;;;11.73;1.85;;;;;;;;;;5005986;28;20085;-65
2022/05/21 14:19:04;;;;;;;6.88;1.63;;;;;;;;;;5000595;28;20046;-65
2022/05/21 14:21:32;;;;;;;6.07;1.70;;;;;;;;;;5005420;28;20053;-65
2022/05/21 14:24:14;;;;;;;9.63;1.83;;;;;;;;;;5016303;28;20061;-65
2022/05/21 14:26:53;;;;;;;7.68;1.75;;;;;;;;;;5004888;28;20050;-65
2022/05/21 14:29:32;;;;;;;17.73;1.73;;;;;;;;;;4999639;28;20054;-66
2022/05/21 14:32:10;;;;;;;5.82;1.40;;;;;;;;;;5005740;28;20090;-65
2022/05/21 14:34:37;;;;;;;7.65;1.67;;;;;;;;;;4999639;28;20085;-66
2022/05/21 14:37:04;;;;;;;9.32;1.60;;;;;;;;;;5006337;28;20056;-66
2022/05/21 14:39:31;;;;;;;8.07;1.58;;;;;;;;;;5000487;28;20089;-65
2022/05/21 14:41:59;;;;;;;3.88;1.00;;;;;;;;;;5006055;28;20149;-65
2022/05/21 14:44:27;;;;;;;7.35;1.23;;;;;;;;;;4999533;28;20060;-66
2022/05/21 14:49:38;;;;;;;6.88;1.25;;;;;;;;;;5002493;28;20053;-65
2022/05/21 14:54:53;;;;;;;6.38;1.30;;;;;;;;;;5003000;28;20063;-65
2022/05/21 14:57:19;;;;;;;7.22;1.40;;;;;;;;;;5025187;28;20087;-65
2022/05/21 14:59:46;;;;;;;6.22;1.15;;;;;;;;;;5004917;28;20120;-65
2022/05/21 15:02:14;;;;;;;8.77;1.50;;;;;;;;;;5010095;28;20060;-66
2022/05/21 15:04:40;;;;;;;11.85;1.42;;;;;;;;;;5003579;28;20073;-65
2022/05/21 15:07:11;;;;;;;6.43;1.35;;;;;;;;;;5008305;28;20049;-66
2022/05/21 15:09:39;;;;;;;5.75;1.30;;;;;;;;;;5019499;28;20053;-65
2022/05/21 15:12:09;;;;;;;7.93;1.60;;;;;;;;;;5000721;28;20100;-65
2022/05/21 15:14:38;;;;;;;8.85;1.70;;;;;;;;;;5003981;28;20053;-66
2022/05/21 15:17:05;;;;;;;9.65;1.52;;;;;;;;;;5025908;28;20076;-65
2022/05/21 15:19:32;;;;;;;4.55;1.40;;;;;;;;;;5005856;28;20085;-65
2022/05/21 15:21:58;;;;;;;8.57;1.58;;;;;;;;;;5011730;28;20065;-65
2022/05/21 15:24:25;;;;;;;4.53;1.40;;;;;;;;;;5012340;28;20060;-65
2022/05/21 15:26:52;;;;;;;7.50;1.40;;;;;;;;;;5007333;28;20060;-65